Time;durP1;ratioP1;P1;durP2;ratioP2;P2;SDS_P1;SDS_P2;PMS_P1;PMS_P2;Temp;Humidity;BMP_temperature;BMP_pressure;BME280_temperature;BME280_humidity;BME280_pressure;Samples;Min_cycle;Max_cycle;Signal;HPM_P1;HPM_P2
2021/11/13 00:00:13;;;;;;;22.90;13.38;;;9.00;99.90;;;;;;5094813;28;20023;-69
2021/11/13 00:02:39;;;;;;;20.15;12.77;;;9.00;99.90;;;;;;5095030;28;20486;-69
2021/11/13 00:05:06;;;;;;;20.17;12.80;;;9.10;99.90;;;;;;5094984;28;20020;-69
2021/11/13 00:07:31;;;;;;;25.65;14.73;;;9.10;99.90;;;;;;5093386;28;20059;-69
2021/11/13 00:09:57;;;;;;;22.75;13.20;;;9.10;99.90;;;;;;5093411;28;20067;-69
2021/11/13 00:12:23;;;;;;;21.83;13.75;;;9.10;99.90;;;;;;5095115;28;20027;-69
2021/11/13 00:14:49;;;;;;;20.40;12.32;;;9.10;99.90;;;;;;5093532;28;20024;-69
2021/11/13 00:17:16;;;;;;;20.05;12.63;;;9.10;99.90;;;;;;5094463;28;20125;-69
2021/11/13 00:19:42;;;;;;;21.80;13.40;;;9.10;99.90;;;;;;5094698;28;20380;-68
2021/11/13 00:22:08;;;;;;;21.80;13.57;;;9.10;99.90;;;;;;5093132;28;20035;-69
2021/11/13 00:24:33;;;;;;;22.00;13.55;;;9.10;99.90;;;;;;5094881;28;20028;-69
2021/11/13 00:26:59;;;;;;;19.75;13.35;;;9.10;99.90;;;;;;5076179;28;20051;-69
2021/11/13 00:29:25;;;;;;;19.73;12.70;;;9.10;99.90;;;;;;5094805;28;20472;-69
2021/11/13 00:31:53;;;;;;;24.92;13.70;;;9.10;99.90;;;;;;5093484;28;20034;-69
2021/11/13 00:34:18;;;;;;;20.85;13.23;;;9.10;99.90;;;;;;5092928;28;20026;-68
2021/11/13 00:36:44;;;;;;;23.23;14.10;;;9.10;99.90;;;;;;5094359;28;20440;-68
2021/11/13 00:39:10;;;;;;;17.95;12.13;;;9.10;99.90;;;;;;5094624;28;20047;-68
2021/11/13 00:41:36;;;;;;;21.67;12.95;;;9.10;99.90;;;;;;5094616;28;20073;-69
2021/11/13 00:44:02;;;;;;;21.45;12.73;;;9.10;99.90;;;;;;5094583;28;20020;-69
2021/11/13 00:46:29;;;;;;;20.45;12.07;;;9.10;99.90;;;;;;5094520;28;20070;-69
2021/11/13 00:48:54;;;;;;;17.95;11.38;;;9.10;99.90;;;;;;5093026;28;20072;-69
2021/11/13 00:51:20;;;;;;;19.77;13.07;;;9.10;99.90;;;;;;5094214;28;20099;-69
2021/11/13 00:53:45;;;;;;;20.33;12.68;;;9.10;99.90;;;;;;5094147;28;20355;-68
2021/11/13 00:56:11;;;;;;;18.02;11.38;;;9.10;99.90;;;;;;5092869;28;20183;-69
2021/11/13 00:58:37;;;;;;;17.13;11.70;;;9.10;99.90;;;;;;5092640;28;20107;-69
2021/11/13 01:01:04;;;;;;;18.65;12.00;;;9.10;99.90;;;;;;5094313;28;20020;-69
2021/11/13 01:03:31;;;;;;;18.90;11.60;;;9.00;99.90;;;;;;5093170;28;20023;-69
2021/11/13 01:05:56;;;;;;;21.27;12.85;;;9.00;99.90;;;;;;5075956;28;20024;-69
2021/11/13 01:08:22;;;;;;;16.38;11.05;;;9.00;99.90;;;;;;5094198;28;20032;-68
2021/11/13 01:10:48;;;;;;;19.50;10.95;;;9.00;99.90;;;;;;5093037;28;20032;-67
2021/11/13 01:13:14;;;;;;;16.67;11.13;;;9.10;99.90;;;;;;5094149;28;20035;-68
2021/11/13 01:15:40;;;;;;;18.40;11.80;;;9.00;99.90;;;;;;5094151;28;20036;-67
2021/11/13 01:18:05;;;;;;;15.27;10.55;;;9.00;99.90;;;;;;5092112;28;20050;-67
2021/11/13 01:20:31;;;;;;;16.55;10.38;;;9.10;99.90;;;;;;5109754;28;20112;-67
2021/11/13 01:22:58;;;;;;;18.58;11.15;;;9.00;99.90;;;;;;5092619;28;20453;-67
2021/11/13 01:25:23;;;;;;;19.23;11.18;;;9.00;99.90;;;;;;5075443;28;20033;-67
2021/11/13 01:27:49;;;;;;;18.60;11.60;;;9.00;99.90;;;;;;5094048;28;20147;-67
2021/11/13 01:30:15;;;;;;;17.63;10.75;;;9.00;99.90;;;;;;5093761;28;20096;-67
2021/11/13 01:32:42;;;;;;;17.17;10.70;;;9.00;99.90;;;;;;5093973;28;20079;-68
2021/11/13 01:35:09;;;;;;;18.90;10.85;;;9.00;99.90;;;;;;5093386;28;20458;-67
2021/11/13 01:37:35;;;;;;;17.98;11.65;;;9.00;99.90;;;;;;5093884;28;20173;-67
2021/11/13 01:40:02;;;;;;;20.35;10.93;;;8.90;99.90;;;;;;5093894;28;20016;-67
2021/11/13 01:42:30;;;;;;;18.75;11.27;;;8.90;99.90;;;;;;5093920;28;20020;-67
2021/11/13 01:44:56;;;;;;;16.65;10.52;;;8.90;99.90;;;;;;5093890;28;20016;-67
2021/11/13 01:47:23;;;;;;;14.77;9.95;;;8.90;99.90;;;;;;5092871;28;20081;-67
2021/11/13 01:49:48;;;;;;;14.88;10.50;;;8.80;99.90;;;;;;5093596;28;20085;-68
2021/11/13 01:52:15;;;;;;;17.58;10.73;;;8.80;99.90;;;;;;5092416;28;20465;-67
2021/11/13 01:54:42;;;;;;;20.15;11.05;;;8.80;99.90;;;;;;5092386;28;20103;-67
2021/11/13 01:57:11;;;;;;;23.23;12.52;;;8.80;99.90;;;;;;5093733;28;20423;-68
2021/11/13 01:59:38;;;;;;;20.45;11.25;;;8.80;99.90;;;;;;5093776;28;20020;-67
2021/11/13 02:02:05;;;;;;;15.93;10.98;;;8.80;99.90;;;;;;5093456;28;20055;-68
2021/11/13 02:04:32;;;;;;;18.45;11.18;;;8.80;99.90;;;;;;5096534;28;20472;-69
2021/11/13 02:06:57;;;;;;;16.00;10.00;;;8.80;99.90;;;;;;5113203;28;20028;-69
2021/11/13 02:09:23;;;;;;;19.05;11.40;;;8.80;99.90;;;;;;5097495;28;20039;-69
2021/11/13 02:11:49;;;;;;;17.85;10.80;;;8.80;99.90;;;;;;5113090;28;20023;-68
2021/11/13 02:14:14;;;;;;;18.20;10.30;;;8.90;99.90;;;;;;5095825;28;20028;-69
2021/11/13 02:16:40;;;;;;;19.45;11.00;;;8.80;99.90;;;;;;5096889;28;20040;-68
2021/11/13 02:19:09;;;;;;;18.50;11.07;;;8.80;99.90;;;;;;5096315;28;20084;-68
2021/11/13 02:21:35;;;;;;;17.52;10.93;;;8.80;99.90;;;;;;5097254;28;20016;-68
2021/11/13 02:24:00;;;;;;;19.13;11.55;;;8.80;99.90;;;;;;5097197;28;20380;-69
2021/11/13 02:26:26;;;;;;;19.17;10.73;;;8.80;99.90;;;;;;5096904;28;20031;-69
2021/11/13 02:28:55;;;;;;;19.52;11.40;;;8.80;99.90;;;;;;5097116;28;20024;-68
2021/11/13 02:31:31;;;;;;;17.40;10.90;;;8.80;99.90;;;;;;5097079;28;20024;-68
2021/11/13 02:33:57;;;;;;;21.15;11.73;;;8.80;99.90;;;;;;5095933;28;20024;-69
2021/11/13 02:36:23;;;;;;;18.13;10.45;;;8.70;99.90;;;;;;5096616;28;20024;-68
2021/11/13 02:38:53;;;;;;;20.25;12.18;;;8.70;99.90;;;;;;5095111;28;20388;-69
2021/11/13 02:41:22;;;;;;;17.15;11.05;;;8.70;99.90;;;;;;5111913;27;20020;-68
2021/11/13 02:43:48;;;;;;;17.13;11.55;;;8.70;99.90;;;;;;5096826;28;20025;-68
2021/11/13 02:46:14;;;;;;;23.80;12.02;;;8.60;99.90;;;;;;5096748;28;20518;-69
2021/11/13 02:48:41;;;;;;;18.85;11.07;;;8.60;99.90;;;;;;5094934;28;20051;-68
2021/11/13 02:51:08;;;;;;;17.52;11.00;;;8.60;99.90;;;;;;5096711;28;20035;-68
2021/11/13 02:53:33;;;;;;;19.67;11.93;;;8.60;99.90;;;;;;5096373;28;20016;-69
2021/11/13 02:56:02;;;;;;;21.30;11.60;;;8.60;99.90;;;;;;5096333;28;20034;-68
2021/11/13 02:58:28;;;;;;;20.55;11.73;;;8.60;99.90;;;;;;5096216;28;20028;-69
2021/11/13 03:00:58;;;;;;;17.88;11.43;;;8.60;99.90;;;;;;5095931;28;20070;-68
2021/11/13 03:03:24;;;;;;;21.95;11.70;;;8.60;99.90;;;;;;5095930;28;20020;-68
2021/11/13 03:05:53;;;;;;;21.45;11.68;;;8.50;99.90;;;;;;5094616;28;20393;-69
2021/11/13 03:08:25;;;;;;;17.13;11.52;;;8.50;99.90;;;;;;5096362;28;20070;-68
2021/11/13 03:10:51;;;;;;;22.10;11.98;;;8.50;99.90;;;;;;5095186;28;20028;-68
2021/11/13 03:13:17;;;;;;;22.08;12.43;;;8.50;99.90;;;;;;5095719;28;20020;-69
2021/11/13 03:15:43;;;;;;;23.48;12.57;;;8.50;99.90;;;;;;5096108;28;20423;-68
2021/11/13 03:18:09;;;;;;;22.30;11.93;;;8.60;99.90;;;;;;5095422;28;20202;-69
2021/11/13 03:20:34;;;;;;;24.13;12.02;;;8.50;99.90;;;;;;5095583;28;20020;-68
2021/11/13 03:23:01;;;;;;;19.25;11.90;;;8.50;99.90;;;;;;5095524;28;20069;-69
2021/11/13 03:25:36;;;;;;;21.30;12.18;;;8.60;99.90;;;;;;5096038;28;20107;-69
2021/11/13 03:28:05;;;;;;;24.73;11.90;;;8.50;99.90;;;;;;5095972;28;20035;-69
2021/11/13 03:30:31;;;;;;;22.67;12.57;;;8.60;99.90;;;;;;5095912;28;20035;-69
2021/11/13 03:32:57;;;;;;;23.65;12.65;;;8.50;99.90;;;;;;5095902;28;20077;-69
2021/11/13 03:35:31;;;;;;;23.15;12.38;;;8.60;99.90;;;;;;5095856;28;20103;-69
2021/11/13 03:38:03;;;;;;;26.48;13.88;;;8.50;99.90;;;;;;5095735;28;20020;-69
2021/11/13 03:40:29;;;;;;;24.20;12.63;;;8.60;99.90;;;;;;5095789;28;20020;-69
2021/11/13 03:42:54;;;;;;;26.20;13.27;;;8.50;99.90;;;;;;5093866;28;20047;-69
2021/11/13 03:45:21;;;;;;;26.13;14.57;;;8.50;99.90;;;;;;5095677;28;20070;-69
2021/11/13 03:47:46;;;;;;;25.55;14.13;;;8.40;99.90;;;;;;5093907;28;20381;-69
2021/11/13 03:50:12;;;;;;;29.75;14.05;;;8.40;99.90;;;;;;5095561;28;20026;-69
2021/11/13 03:52:38;;;;;;;29.75;14.05;;;8.40;99.90;;;;;;5095541;28;20477;-69
2021/11/13 03:55:04;;;;;;;25.98;13.75;;;8.40;99.90;;;;;;5094310;28;20032;-69
2021/11/13 03:57:30;;;;;;;27.25;13.80;;;8.40;99.90;;;;;;5095341;28;20077;-69
2021/11/13 03:59:55;;;;;;;31.02;14.48;;;8.30;99.90;;;;;;5095357;28;20028;-69
2021/11/13 04:02:21;;;;;;;28.48;14.52;;;8.20;99.90;;;;;;5095327;28;20024;-69
2021/11/13 04:04:47;;;;;;;29.65;15.57;;;8.20;99.90;;;;;;5093853;28;20085;-68
2021/11/13 04:07:13;;;;;;;29.15;15.00;;;8.10;99.90;;;;;;5094938;28;20521;-69
2021/11/13 04:09:39;;;;;;;34.38;16.70;;;8.10;99.90;;;;;;5094908;28;20470;-68
2021/11/13 04:12:06;;;;;;;36.80;17.10;;;8.00;99.90;;;;;;5095141;28;20020;-68
2021/11/13 04:14:34;;;;;;;33.88;16.42;;;8.00;99.90;;;;;;5095086;28;20024;-68
2021/11/13 04:17:00;;;;;;;39.13;16.42;;;8.00;99.90;;;;;;5093099;28;20120;-68
2021/11/13 04:19:26;;;;;;;36.28;17.73;;;8.00;99.90;;;;;;5095006;28;20047;-68
2021/11/13 04:21:52;;;;;;;36.75;16.35;;;7.90;99.90;;;;;;5094659;28;20031;-68
2021/11/13 04:24:17;;;;;;;37.30;17.55;;;7.90;99.90;;;;;;5093471;28;20028;-68
2021/11/13 04:26:43;;;;;;;36.28;18.83;;;7.90;99.90;;;;;;5093175;28;20082;-68
2021/11/13 04:29:08;;;;;;;36.33;18.38;;;7.90;99.90;;;;;;5094833;28;20027;-68
2021/11/13 04:31:34;;;;;;;38.15;19.77;;;7.90;99.90;;;;;;5092979;28;20393;-68
2021/11/13 04:34:02;;;;;;;43.60;18.90;;;7.90;99.90;;;;;;5093176;28;20063;-68
2021/11/13 04:36:33;;;;;;;39.25;20.50;;;7.90;99.90;;;;;;5094655;28;20077;-68
2021/11/13 04:38:59;;;;;;;48.40;20.23;;;7.80;99.90;;;;;;5093578;28;20076;-68
2021/11/13 04:41:24;;;;;;;43.08;20.73;;;7.80;99.90;;;;;;5093194;28;20024;-68
2021/11/13 04:43:50;;;;;;;43.70;20.10;;;7.80;99.90;;;;;;5092768;28;20031;-68
2021/11/13 04:46:15;;;;;;;39.25;18.75;;;7.80;99.90;;;;;;5094570;28;20161;-68
2021/11/13 04:48:41;;;;;;;40.25;19.02;;;7.90;99.90;;;;;;5094520;28;20497;-68
2021/11/13 04:51:07;;;;;;;42.10;17.90;;;7.80;99.90;;;;;;5094474;28;20365;-68
2021/11/13 04:53:32;;;;;;;41.08;18.85;;;7.80;99.90;;;;;;5094428;28;20051;-68
2021/11/13 04:55:58;;;;;;;43.35;18.48;;;7.80;99.90;;;;;;5094105;28;20078;-69
2021/11/13 04:58:24;;;;;;;45.22;19.42;;;7.80;99.90;;;;;;5094277;28;20024;-68
2021/11/13 05:00:49;;;;;;;43.95;18.30;;;7.80;99.90;;;;;;5094080;28;20039;-68
2021/11/13 05:03:15;;;;;;;38.53;18.92;;;7.90;99.90;;;;;;5094312;28;20466;-68
2021/11/13 05:05:41;;;;;;;44.35;19.58;;;7.90;99.90;;;;;;5094013;28;20024;-68
2021/11/13 05:08:06;;;;;;;45.88;18.80;;;7.90;99.90;;;;;;5092806;28;20035;-68
2021/11/13 05:10:32;;;;;;;43.22;19.67;;;7.90;99.90;;;;;;5094214;28;20039;-68
2021/11/13 05:12:58;;;;;;;47.03;20.00;;;7.90;99.90;;;;;;5094215;28;20103;-68
2021/11/13 05:15:24;;;;;;;49.33;19.42;;;7.90;99.90;;;;;;5093874;28;20054;-68
2021/11/13 05:17:49;;;;;;;44.20;19.35;;;7.90;99.90;;;;;;5092218;28;20040;-68
2021/11/13 05:20:17;;;;;;;39.08;19.17;;;7.90;99.90;;;;;;5075453;28;20403;-68
2021/11/13 05:22:44;;;;;;;40.97;20.05;;;7.90;99.90;;;;;;5093777;28;20373;-68
2021/11/13 05:25:13;;;;;;;46.70;19.40;;;7.90;99.90;;;;;;5092932;28;20044;-68
2021/11/13 05:27:39;;;;;;;44.90;19.90;;;8.00;99.90;;;;;;5092637;28;20028;-68
2021/11/13 05:30:08;;;;;;;44.97;19.52;;;7.90;99.90;;;;;;5093021;28;20027;-68
2021/11/13 05:32:34;;;;;;;52.58;21.48;;;8.00;99.90;;;;;;5093983;28;20024;-68
2021/11/13 05:35:00;;;;;;;43.72;20.75;;;8.00;99.90;;;;;;5092181;28;20173;-68
2021/11/13 05:37:25;;;;;;;49.50;22.52;;;8.00;99.90;;;;;;5093918;28;20055;-68
2021/11/13 05:39:51;;;;;;;52.63;22.80;;;8.00;99.90;;;;;;5078831;28;20069;-68
2021/11/13 05:42:17;;;;;;;51.28;22.85;;;8.00;99.90;;;;;;5098044;28;20369;-68
2021/11/13 05:44:43;;;;;;;53.38;23.38;;;8.00;99.90;;;;;;5096171;28;20028;-68
2021/11/13 05:47:09;;;;;;;56.75;23.35;;;7.90;99.90;;;;;;5097688;28;20024;-68
2021/11/13 05:49:34;;;;;;;48.40;22.70;;;7.90;99.90;;;;;;5097369;28;20473;-68
2021/11/13 05:52:00;;;;;;;53.28;25.65;;;8.00;99.90;;;;;;5097578;28;20086;-68
2021/11/13 05:54:26;;;;;;;55.50;24.70;;;7.90;99.90;;;;;;5096845;28;20024;-68
2021/11/13 05:56:51;;;;;;;57.40;26.45;;;7.90;99.90;;;;;;5113208;28;20024;-68
2021/11/13 05:59:17;;;;;;;68.20;27.25;;;7.90;99.90;;;;;;5113249;28;20023;-68
2021/11/13 06:01:42;;;;;;;53.03;25.25;;;8.00;99.90;;;;;;5097665;28;20032;-68
2021/11/13 06:04:08;;;;;;;55.60;25.77;;;7.90;99.90;;;;;;5097074;28;20050;-68
2021/11/13 06:06:34;;;;;;;62.95;25.38;;;7.90;99.90;;;;;;5078795;28;20028;-68
2021/11/13 06:08:59;;;;;;;60.85;26.50;;;7.90;99.90;;;;;;5095796;28;20039;-68
2021/11/13 06:11:25;;;;;;;51.30;24.17;;;8.00;99.90;;;;;;5095767;28;20103;-68
2021/11/13 06:13:50;;;;;;;51.90;24.30;;;8.00;99.90;;;;;;5097401;28;20480;-68
2021/11/13 06:16:16;;;;;;;50.00;23.23;;;7.90;99.90;;;;;;5095269;28;20040;-68
2021/11/13 06:18:42;;;;;;;53.20;25.52;;;8.00;99.90;;;;;;5095529;28;20028;-68
2021/11/13 06:21:08;;;;;;;48.75;23.25;;;8.00;99.90;;;;;;5097315;28;20024;-68
2021/11/13 06:23:35;;;;;;;46.55;22.50;;;8.00;99.90;;;;;;5096931;28;20087;-68
2021/11/13 06:26:01;;;;;;;49.20;22.40;;;8.00;99.90;;;;;;5096902;28;20016;-68
2021/11/13 06:28:27;;;;;;;44.50;22.23;;;8.00;99.90;;;;;;5095405;28;20032;-68
2021/11/13 06:30:53;;;;;;;46.72;22.00;;;7.90;99.90;;;;;;5097094;28;20382;-68
2021/11/13 06:33:19;;;;;;;42.40;21.33;;;8.00;99.90;;;;;;5097061;28;20052;-68
2021/11/13 06:35:44;;;;;;;46.88;23.67;;;8.00;99.90;;;;;;5096456;28;20024;-68
2021/11/13 06:38:10;;;;;;;45.10;22.20;;;8.00;99.90;;;;;;5096879;28;20089;-68
2021/11/13 06:40:35;;;;;;;46.30;22.38;;;8.00;99.90;;;;;;5096636;28;20055;-68
2021/11/13 06:43:01;;;;;;;42.67;21.35;;;8.00;99.90;;;;;;5096874;28;20020;-68
2021/11/13 06:45:27;;;;;;;43.22;21.33;;;8.00;99.90;;;;;;5095346;28;20438;-68
2021/11/13 06:47:53;;;;;;;39.00;19.85;;;8.00;99.90;;;;;;5096233;28;20016;-68
2021/11/13 06:50:19;;;;;;;35.33;19.00;;;8.00;99.90;;;;;;5095979;28;20145;-68
2021/11/13 06:52:44;;;;;;;35.05;18.42;;;8.00;99.90;;;;;;5096674;28;20028;-68
2021/11/13 06:55:11;;;;;;;41.45;19.88;;;8.00;99.90;;;;;;5096324;28;20040;-68
2021/11/13 06:57:37;;;;;;;38.63;19.23;;;8.00;99.90;;;;;;5096256;28;20035;-68
2021/11/13 07:00:06;;;;;;;38.22;19.77;;;8.00;99.90;;;;;;5096550;28;20140;-68
2021/11/13 07:02:32;;;;;;;36.95;19.60;;;8.00;99.90;;;;;;5095361;28;20023;-68
2021/11/13 07:04:59;;;;;;;38.70;19.25;;;8.00;99.90;;;;;;5096429;28;20035;-68
2021/11/13 07:07:25;;;;;;;42.35;19.63;;;8.00;99.90;;;;;;5096395;28;20024;-68
2021/11/13 07:09:50;;;;;;;39.08;19.00;;;8.00;99.90;;;;;;5095362;28;20519;-69
2021/11/13 07:12:16;;;;;;;35.55;18.80;;;8.00;99.90;;;;;;5095357;28;20046;-68
2021/11/13 07:14:41;;;;;;;38.13;18.70;;;8.00;99.90;;;;;;5096264;28;20106;-68
2021/11/13 07:17:07;;;;;;;36.00;18.23;;;8.00;99.90;;;;;;5095477;28;20040;-68
2021/11/13 07:19:33;;;;;;;38.28;18.35;;;8.10;99.90;;;;;;5096156;28;20016;-69
2021/11/13 07:21:58;;;;;;;35.35;18.33;;;8.10;99.90;;;;;;5096138;28;20016;-69
2021/11/13 07:24:24;;;;;;;34.15;17.90;;;8.10;99.90;;;;;;5096035;28;20103;-69
2021/11/13 07:26:53;;;;;;;33.33;17.02;;;8.10;99.90;;;;;;5096061;28;20032;-68
2021/11/13 07:29:23;;;;;;;35.03;18.15;;;8.10;99.90;;;;;;5094889;28;20020;-68
2021/11/13 07:31:48;;;;;;;30.15;16.33;;;8.10;99.90;;;;;;5111305;28;20024;-69
2021/11/13 07:34:14;;;;;;;34.38;18.17;;;8.10;99.90;;;;;;5095891;28;20024;-68
2021/11/13 07:36:39;;;;;;;34.35;16.52;;;8.20;99.90;;;;;;5095189;28;20032;-69
2021/11/13 07:39:05;;;;;;;27.50;15.95;;;8.10;99.90;;;;;;5095777;28;20031;-68
2021/11/13 07:41:30;;;;;;;28.90;16.45;;;8.20;99.90;;;;;;5094022;28;20016;-69
2021/11/13 07:43:56;;;;;;;26.35;15.95;;;8.20;99.90;;;;;;5094533;28;20099;-68
2021/11/13 07:46:21;;;;;;;24.98;14.45;;;8.20;99.90;;;;;;5093818;28;20077;-68
2021/11/13 07:48:47;;;;;;;23.65;14.35;;;8.20;99.90;;;;;;5095366;28;20030;-68
2021/11/13 07:51:13;;;;;;;23.88;13.75;;;8.20;99.90;;;;;;5095557;28;20016;-68
2021/11/13 07:53:38;;;;;;;23.70;14.98;;;8.20;99.90;;;;;;5095411;28;20060;-68
2021/11/13 07:56:04;;;;;;;19.80;13.00;;;8.20;99.90;;;;;;5095175;28;20043;-68
2021/11/13 07:58:30;;;;;;;21.50;13.73;;;8.20;99.90;;;;;;5095358;28;20028;-68
2021/11/13 08:00:56;;;;;;;22.73;13.23;;;8.10;99.90;;;;;;5094005;28;20029;-68
2021/11/13 08:03:22;;;;;;;18.55;11.45;;;8.10;99.90;;;;;;5095330;28;20019;-67
2021/11/13 08:05:48;;;;;;;18.08;11.52;;;8.10;99.90;;;;;;5093863;28;20350;-68
2021/11/13 08:08:14;;;;;;;21.30;11.90;;;8.10;99.90;;;;;;5094093;28;20095;-68
2021/11/13 08:10:41;;;;;;;17.90;11.55;;;8.10;99.90;;;;;;5093948;28;20533;-68
2021/11/13 08:13:09;;;;;;;19.50;11.90;;;8.10;99.90;;;;;;5093744;28;20484;-68
2021/11/13 08:15:35;;;;;;;19.10;11.95;;;8.20;99.90;;;;;;5095132;28;20028;-68
2021/11/13 08:18:00;;;;;;;18.50;11.45;;;8.10;99.90;;;;;;5094361;28;20527;-68
2021/11/13 08:20:26;;;;;;;17.15;11.70;;;8.10;99.90;;;;;;5094448;28;20027;-68
2021/11/13 08:22:51;;;;;;;18.98;11.27;;;8.20;99.90;;;;;;5094662;28;20024;-68
2021/11/13 08:25:17;;;;;;;20.20;12.13;;;8.20;99.90;;;;;;5094923;28;20024;-68
2021/11/13 08:27:43;;;;;;;19.08;11.57;;;8.30;99.90;;;;;;5094605;28;20412;-68
2021/11/13 08:30:10;;;;;;;15.85;10.20;;;8.30;99.90;;;;;;5094878;28;20027;-68
2021/11/13 08:32:37;;;;;;;16.23;10.32;;;8.30;99.90;;;;;;5093331;28;20028;-68
2021/11/13 08:35:04;;;;;;;17.75;10.15;;;8.40;99.90;;;;;;5094496;28;20032;-68
2021/11/13 08:37:30;;;;;;;18.70;11.10;;;8.40;99.90;;;;;;5094646;28;20031;-68
2021/11/13 08:39:57;;;;;;;16.63;10.77;;;8.50;99.90;;;;;;5076292;28;20377;-68
2021/11/13 08:42:23;;;;;;;17.45;10.90;;;8.60;99.90;;;;;;5092828;28;20140;-68
2021/11/13 08:44:49;;;;;;;14.63;10.50;;;8.70;99.90;;;;;;5094318;28;20041;-68
2021/11/13 08:47:15;;;;;;;15.15;10.00;;;8.70;99.90;;;;;;5094560;28;20036;-68
2021/11/13 08:49:45;;;;;;;14.30;9.35;;;8.80;99.90;;;;;;5092725;28;20024;-69
2021/11/13 08:52:12;;;;;;;14.82;9.75;;;8.80;99.90;;;;;;5094460;28;20028;-69
2021/11/13 08:54:38;;;;;;;13.43;9.25;;;8.80;99.90;;;;;;5094167;28;20020;-68
2021/11/13 08:57:05;;;;;;;14.68;9.05;;;8.90;99.90;;;;;;5092883;28;20031;-69
2021/11/13 08:59:31;;;;;;;17.60;9.77;;;8.90;99.90;;;;;;5094064;28;20020;-68
2021/11/13 09:02:00;;;;;;;13.77;9.43;;;9.00;99.90;;;;;;5094401;28;20096;-68
2021/11/13 09:04:26;;;;;;;14.57;9.93;;;9.00;99.90;;;;;;5094323;28;20043;-69
2021/11/13 09:06:52;;;;;;;14.70;9.43;;;9.00;99.90;;;;;;5094242;28;20059;-68
2021/11/13 09:09:17;;;;;;;14.05;8.63;;;9.20;99.90;;;;;;5092785;28;20331;-68
2021/11/13 09:11:43;;;;;;;13.13;9.23;;;9.10;99.90;;;;;;5092307;28;20028;-69
2021/11/13 09:14:12;;;;;;;13.93;9.32;;;9.00;99.90;;;;;;5092886;28;20408;-69
2021/11/13 09:16:38;;;;;;;13.65;9.40;;;9.00;99.90;;;;;;5091974;28;20135;-69
2021/11/13 09:19:04;;;;;;;15.27;10.68;;;9.10;99.90;;;;;;5092341;28;20115;-69
2021/11/13 09:21:32;;;;;;;12.43;9.18;;;9.10;99.90;;;;;;5093867;28;20112;-68
2021/11/13 09:23:59;;;;;;;15.95;9.93;;;9.20;99.90;;;;;;5094096;28;20027;-69
2021/11/13 09:26:25;;;;;;;15.32;9.88;;;9.20;99.90;;;;;;5093074;28;20445;-69
2021/11/13 09:28:51;;;;;;;13.93;9.40;;;9.30;99.90;;;;;;5092221;28;20032;-68
2021/11/13 09:31:16;;;;;;;13.65;9.38;;;9.30;99.90;;;;;;5094292;28;20220;-68
2021/11/13 09:33:42;;;;;;;13.82;8.60;;;9.30;99.90;;;;;;5093974;28;20483;-68
2021/11/13 09:36:08;;;;;;;12.88;9.43;;;9.20;99.90;;;;;;5093703;28;20024;-68
2021/11/13 09:38:37;;;;;;;15.13;9.77;;;9.30;99.90;;;;;;5092003;28;20389;-69
2021/11/13 09:41:05;;;;;;;12.18;8.38;;;9.40;99.90;;;;;;5093033;28;20392;-69
2021/11/13 09:43:33;;;;;;;11.50;7.88;;;9.30;99.90;;;;;;5092107;28;20022;-68
2021/11/13 09:46:00;;;;;;;10.45;7.80;;;9.30;99.90;;;;;;5092046;28;20073;-68
2021/11/13 09:48:28;;;;;;;12.88;7.80;;;9.30;99.90;;;;;;5093874;28;20050;-69
2021/11/13 09:50:54;;;;;;;10.43;7.75;;;9.30;99.90;;;;;;5093186;28;20024;-69
2021/11/13 09:53:21;;;;;;;10.82;7.45;;;9.30;99.90;;;;;;5093801;28;20358;-69
2021/11/13 09:55:48;;;;;;;9.40;7.78;;;9.40;99.90;;;;;;5093797;28;20039;-69
2021/11/13 09:58:14;;;;;;;11.82;8.15;;;9.40;99.90;;;;;;5093654;28;20441;-69
2021/11/13 10:00:42;;;;;;;12.45;7.85;;;9.40;99.90;;;;;;5093748;28;20025;-69
2021/11/13 10:03:09;;;;;;;9.30;7.57;;;9.40;99.90;;;;;;5093715;28;20477;-69
2021/11/13 10:05:36;;;;;;;12.40;8.40;;;9.40;99.90;;;;;;5093687;28;20031;-69
2021/11/13 10:08:01;;;;;;;11.60;8.35;;;9.40;99.90;;;;;;5093075;28;20115;-69
2021/11/13 10:10:33;;;;;;;12.20;8.25;;;9.40;99.90;;;;;;5092199;28;20117;-69
2021/11/13 10:13:00;;;;;;;10.10;8.13;;;9.30;99.90;;;;;;5093319;28;20027;-69
2021/11/13 10:15:32;;;;;;;15.68;9.80;;;9.20;99.90;;;;;;5092185;28;20489;-68
2021/11/13 10:18:16;;;;;;;14.90;9.07;;;9.20;99.90;;;;;;5092772;28;20132;-68
2021/11/13 10:21:04;;;;;;;15.45;9.45;;;9.10;99.90;;;;;;5093540;28;20012;-68
2021/11/13 10:23:51;;;;;;;13.35;8.85;;;9.10;99.90;;;;;;5093196;28;20541;-68
2021/11/13 10:26:22;;;;;;;12.30;9.07;;;9.10;99.90;;;;;;5095504;28;20050;-68
2021/11/13 10:28:52;;;;;;;14.50;9.60;;;9.10;99.90;;;;;;5079445;28;20032;-68
2021/11/13 10:31:36;;;;;;;14.45;9.85;;;9.10;99.90;;;;;;5096870;28;20127;-68
2021/11/13 10:34:04;;;;;;;14.82;9.60;;;9.10;99.90;;;;;;5097064;28;20052;-68
2021/11/13 10:36:34;;;;;;;14.18;10.18;;;9.20;99.90;;;;;;5095106;28;20032;-68
2021/11/13 10:39:06;;;;;;;13.95;9.73;;;9.20;99.90;;;;;;5096017;28;20032;-68
2021/11/13 10:41:41;;;;;;;11.32;8.85;;;9.20;99.90;;;;;;5096910;28;20445;-68
2021/11/13 10:44:07;;;;;;;12.90;9.43;;;9.20;99.90;;;;;;5096846;28;20027;-68
2021/11/13 10:46:32;;;;;;;13.73;9.38;;;9.20;99.90;;;;;;5096824;28;20065;-68
2021/11/13 10:48:59;;;;;;;12.60;9.15;;;9.30;99.90;;;;;;5096782;28;20473;-68
2021/11/13 10:51:30;;;;;;;11.60;8.20;;;9.30;99.90;;;;;;5095586;28;20382;-68
2021/11/13 10:53:56;;;;;;;13.40;9.40;;;9.40;99.90;;;;;;5096386;28;20416;-68
2021/11/13 10:56:26;;;;;;;12.82;8.77;;;9.50;99.90;;;;;;5096364;28;20039;-68
2021/11/13 10:58:58;;;;;;;11.60;8.27;;;9.50;99.90;;;;;;5096567;28;20020;-68
2021/11/13 11:04:20;;;;;;;8.18;6.28;;;9.60;99.90;;;;;;5091072;28;20455;-68
2021/11/13 11:06:50;;;;;;;9.00;5.70;;;9.60;99.90;;;;;;5091265;28;20078;-69
2021/11/13 11:09:29;;;;;;;8.55;5.65;;;9.70;99.90;;;;;;5090115;28;20485;-69
2021/11/13 11:11:58;;;;;;;7.13;5.30;;;9.70;99.90;;;;;;5091444;28;20028;-67
2021/11/13 11:14:27;;;;;;;7.35;5.82;;;9.70;99.90;;;;;;5091394;28;20044;-68
2021/11/13 11:16:57;;;;;;;6.30;5.13;;;9.70;99.90;;;;;;5090110;28;20466;-69
2021/11/13 11:19:27;;;;;;;8.70;5.97;;;9.80;99.90;;;;;;5091158;28;20073;-68
2021/11/13 11:22:16;;;;;;;5.95;4.97;;;9.90;99.90;;;;;;5091150;28;20028;-69
2021/11/13 11:24:46;;;;;;;6.72;5.65;;;10.00;99.90;;;;;;5089431;28;20033;-68
2021/11/13 11:27:16;;;;;;;8.25;5.78;;;10.00;99.90;;;;;;5091187;28;20028;-68
2021/11/13 11:32:54;;;;;;;7.78;5.50;;;10.10;99.90;;;;;;5112200;27;20351;-68
2021/11/13 11:35:23;;;;;;;6.40;5.22;;;10.10;99.90;;;;;;5111458;28;20384;-68
2021/11/13 11:37:52;;;;;;;6.90;5.43;;;10.20;99.90;;;;;;5110410;28;20028;-68
2021/11/13 11:40:28;;;;;;;5.68;4.43;;;10.20;99.90;;;;;;5110355;28;20024;-67
2021/11/13 11:42:54;;;;;;;8.18;5.50;;;10.20;99.90;;;;;;5110666;28;20019;-68
2021/11/13 11:45:24;;;;;;;6.68;4.35;;;10.10;99.90;;;;;;5110288;28;20091;-69
2021/11/13 11:47:51;;;;;;;6.57;4.70;;;10.20;99.90;;;;;;5111389;28;20044;-69
2021/11/13 11:50:24;;;;;;;6.53;5.15;;;10.20;99.90;;;;;;5111296;28;20019;-68
2021/11/13 11:52:51;;;;;;;;;;;10.20;99.90;;;;;;5111729;28;20354;-69
2021/11/13 11:55:17;;;;;;;8.02;5.68;;;10.20;99.90;;;;;;5111543;28;20272;-69
2021/11/13 11:57:45;;;;;;;7.60;5.47;;;10.20;99.90;;;;;;5110765;28;20103;-68
2021/11/13 12:00:18;;;;;;;5.97;5.07;;;10.30;99.90;;;;;;5110280;28;20127;-68
2021/11/13 12:02:47;;;;;;;9.32;5.97;;;10.20;99.90;;;;;;5111394;28;20024;-69
2021/11/13 12:05:17;;;;;;;8.73;7.80;;;10.30;99.90;;;;;;5111617;28;20048;-67
2021/11/13 12:07:44;;;;;;;9.82;7.10;;;10.40;99.90;;;;;;5111319;28;20063;-68
2021/11/13 12:10:14;;;;;;;11.95;8.05;;;10.40;99.90;;;;;;5111176;28;20019;-67
2021/11/13 12:12:58;;;;;;;10.35;8.60;;;10.50;99.90;;;;;;5111184;28;20024;-67
2021/11/13 12:15:24;;;;;;;10.50;7.75;;;10.50;99.90;;;;;;5111439;28;20050;-68
2021/11/13 12:17:52;;;;;;;9.68;6.85;;;10.40;99.90;;;;;;5111108;28;20011;-68
2021/11/13 12:20:23;;;;;;;10.23;7.82;;;10.40;99.90;;;;;;5092833;28;20028;-67
2021/11/13 12:22:55;;;;;;;9.40;7.50;;;10.40;99.90;;;;;;5092802;28;20016;-68
2021/11/13 12:25:24;;;;;;;9.88;7.97;;;10.30;99.90;;;;;;5110961;28;20022;-68
2021/11/13 12:28:13;;;;;;;11.60;7.90;;;10.30;99.90;;;;;;5092123;28;20016;-68
2021/11/13 12:31:04;;;;;;;14.95;8.60;;;10.40;99.90;;;;;;5109987;28;20047;-69
2021/11/13 12:36:12;;;;;;;11.60;8.90;;;10.30;99.90;;;;;;5112130;27;20797;-69
2021/11/13 12:38:44;;;;;;;11.32;8.65;;;10.30;99.90;;;;;;5111914;28;20030;-69
2021/11/13 12:41:17;;;;;;;11.13;8.15;;;10.30;99.90;;;;;;5110730;28;20106;-68
2021/11/13 12:44:00;;;;;;;13.68;7.80;;;10.30;99.90;;;;;;5111797;28;20073;-68
2021/11/13 12:49:30;;;;;;;9.02;7.70;;;10.30;99.90;;;;;;5091834;28;20425;-68
2021/11/13 12:52:00;;;;;;;9.50;7.40;;;10.30;99.90;;;;;;5089779;28;20024;-68